sensor_id;sensor_type;location;lat;lon;timestamp;temperature;humidity
42145;DHT22;27813;43.516;11.890;2024-02-21T00:03:29;2.70;90.40
42145;DHT22;27813;43.516;11.890;2024-02-21T00:07:33;2.50;90.40
42145;DHT22;27813;43.516;11.890;2024-02-21T00:11:37;2.40;90.70
42145;DHT22;27813;43.516;11.890;2024-02-21T00:15:46;2.40;90.90
42145;DHT22;27813;43.516;11.890;2024-02-21T00:19:49;2.50;90.60
42145;DHT22;27813;43.516;11.890;2024-02-21T00:23:54;2.40;90.50
42145;DHT22;27813;43.516;11.890;2024-02-21T00:27:58;2.30;90.70
42145;DHT22;27813;43.516;11.890;2024-02-21T00:32:02;2.30;91.00
42145;DHT22;27813;43.516;11.890;2024-02-21T00:36:06;2.40;91.10
42145;DHT22;27813;43.516;11.890;2024-02-21T00:40:11;2.30;90.80
42145;DHT22;27813;43.516;11.890;2024-02-21T00:44:16;2.30;90.80
42145;DHT22;27813;43.516;11.890;2024-02-21T00:48:19;2.20;90.90
42145;DHT22;27813;43.516;11.890;2024-02-21T00:52:27;2.00;90.90
42145;DHT22;27813;43.516;11.890;2024-02-21T00:56:31;2.00;91.10
42145;DHT22;27813;43.516;11.890;2024-02-21T01:00:35;2.00;91.20
42145;DHT22;27813;43.516;11.890;2024-02-21T01:04:39;2.00;91.30
42145;DHT22;27813;43.516;11.890;2024-02-21T01:08:44;1.90;91.20
42145;DHT22;27813;43.516;11.890;2024-02-21T01:12:48;1.80;91.10
42145;DHT22;27813;43.516;11.890;2024-02-21T01:16:53;1.80;91.00
42145;DHT22;27813;43.516;11.890;2024-02-21T01:20:58;1.70;91.00
42145;DHT22;27813;43.516;11.890;2024-02-21T01:25:04;1.50;90.80
42145;DHT22;27813;43.516;11.890;2024-02-21T01:29:09;1.50;91.30
42145;DHT22;27813;43.516;11.890;2024-02-21T01:33:13;1.50;91.60
42145;DHT22;27813;43.516;11.890;2024-02-21T01:37:20;1.60;91.70
42145;DHT22;27813;43.516;11.890;2024-02-21T01:41:25;1.80;91.60
42145;DHT22;27813;43.516;11.890;2024-02-21T01:45:30;1.90;91.60
42145;DHT22;27813;43.516;11.890;2024-02-21T01:49:34;2.00;91.70
42145;DHT22;27813;43.516;11.890;2024-02-21T01:53:42;2.20;91.50
42145;DHT22;27813;43.516;11.890;2024-02-21T01:57:47;2.20;90.80
42145;DHT22;27813;43.516;11.890;2024-02-21T02:01:52;2.00;90.60
42145;DHT22;27813;43.516;11.890;2024-02-21T02:05:56;1.80;90.60
42145;DHT22;27813;43.516;11.890;2024-02-21T02:10:02;1.60;90.70
42145;DHT22;27813;43.516;11.890;2024-02-21T02:14:07;1.50;90.80
42145;DHT22;27813;43.516;11.890;2024-02-21T02:18:13;1.50;91.10
42145;DHT22;27813;43.516;11.890;2024-02-21T02:22:25;1.40;91.20
42145;DHT22;27813;43.516;11.890;2024-02-21T02:26:31;1.40;91.10
42145;DHT22;27813;43.516;11.890;2024-02-21T02:30:36;1.40;90.90
42145;DHT22;27813;43.516;11.890;2024-02-21T02:34:43;1.30;90.90
42145;DHT22;27813;43.516;11.890;2024-02-21T02:38:48;1.20;91.10
42145;DHT22;27813;43.516;11.890;2024-02-21T02:42:52;1.10;90.90
42145;DHT22;27813;43.516;11.890;2024-02-21T02:46:58;1.00;91.10
42145;DHT22;27813;43.516;11.890;2024-02-21T02:51:04;1.00;91.20
42145;DHT22;27813;43.516;11.890;2024-02-21T02:55:08;0.90;91.10
42145;DHT22;27813;43.516;11.890;2024-02-21T02:59:12;0.80;91.10
42145;DHT22;27813;43.516;11.890;2024-02-21T03:03:16;0.80;91.00
42145;DHT22;27813;43.516;11.890;2024-02-21T03:07:20;0.90;91.60
42145;DHT22;27813;43.516;11.890;2024-02-21T03:11:25;1.00;91.50
42145;DHT22;27813;43.516;11.890;2024-02-21T03:15:34;1.00;91.40
42145;DHT22;27813;43.516;11.890;2024-02-21T03:19:38;1.10;91.50
42145;DHT22;27813;43.516;11.890;2024-02-21T03:23:43;1.10;91.60
42145;DHT22;27813;43.516;11.890;2024-02-21T03:27:47;1.10;91.40
42145;DHT22;27813;43.516;11.890;2024-02-21T03:31:51;1.00;91.40
42145;DHT22;27813;43.516;11.890;2024-02-21T03:35:55;1.00;91.30
42145;DHT22;27813;43.516;11.890;2024-02-21T03:40:05;0.90;91.30
42145;DHT22;27813;43.516;11.890;2024-02-21T03:44:10;0.90;91.20
42145;DHT22;27813;43.516;11.890;2024-02-21T03:48:15;0.80;91.20
42145;DHT22;27813;43.516;11.890;2024-02-21T03:52:20;0.70;91.20
42145;DHT22;27813;43.516;11.890;2024-02-21T03:56:26;0.70;91.70
42145;DHT22;27813;43.516;11.890;2024-02-21T04:00:30;0.80;91.90
42145;DHT22;27813;43.516;11.890;2024-02-21T04:04:37;0.70;91.60
42145;DHT22;27813;43.516;11.890;2024-02-21T04:08:42;0.70;91.50
42145;DHT22;27813;43.516;11.890;2024-02-21T04:12:46;0.60;91.50
42145;DHT22;27813;43.516;11.890;2024-02-21T04:16:50;0.50;91.50
42145;DHT22;27813;43.516;11.890;2024-02-21T04:20:55;0.40;91.60
42145;DHT22;27813;43.516;11.890;2024-02-21T04:25:00;0.40;91.50
42145;DHT22;27813;43.516;11.890;2024-02-21T04:29:05;0.30;91.30
42145;DHT22;27813;43.516;11.890;2024-02-21T04:33:09;0.30;91.30
42145;DHT22;27813;43.516;11.890;2024-02-21T04:37:14;0.20;91.50
42145;DHT22;27813;43.516;11.890;2024-02-21T04:41:18;0.20;91.70
42145;DHT22;27813;43.516;11.890;2024-02-21T04:45:22;0.20;91.70
42145;DHT22;27813;43.516;11.890;2024-02-21T04:49:27;0.10;91.60
42145;DHT22;27813;43.516;11.890;2024-02-21T04:53:31;0.20;91.90
42145;DHT22;27813;43.516;11.890;2024-02-21T04:57:38;0.20;92.00
42145;DHT22;27813;43.516;11.890;2024-02-21T05:01:43;0.20;91.80
42145;DHT22;27813;43.516;11.890;2024-02-21T05:05:47;0.30;92.10
42145;DHT22;27813;43.516;11.890;2024-02-21T05:09:53;0.40;92.00
42145;DHT22;27813;43.516;11.890;2024-02-21T05:13:57;0.50;91.90
42145;DHT22;27813;43.516;11.890;2024-02-21T05:18:03;0.40;91.60
42145;DHT22;27813;43.516;11.890;2024-02-21T05:22:09;0.50;91.80
42145;DHT22;27813;43.516;11.890;2024-02-21T05:26:20;0.40;91.70
42145;DHT22;27813;43.516;11.890;2024-02-21T05:30:25;0.20;91.70
42145;DHT22;27813;43.516;11.890;2024-02-21T05:34:29;0.20;92.20
42145;DHT22;27813;43.516;11.890;2024-02-21T05:38:35;0.40;92.40
42145;DHT22;27813;43.516;11.890;2024-02-21T05:42:40;0.40;92.00
42145;DHT22;27813;43.516;11.890;2024-02-21T05:46:44;0.40;92.10
42145;DHT22;27813;43.516;11.890;2024-02-21T05:50:49;0.50;92.20
42145;DHT22;27813;43.516;11.890;2024-02-21T05:54:54;0.50;92.40
42145;DHT22;27813;43.516;11.890;2024-02-21T05:58:59;0.60;92.40
42145;DHT22;27813;43.516;11.890;2024-02-21T06:03:06;0.60;92.10
42145;DHT22;27813;43.516;11.890;2024-02-21T06:07:11;0.50;92.00
42145;DHT22;27813;43.516;11.890;2024-02-21T06:11:15;0.40;91.90
42145;DHT22;27813;43.516;11.890;2024-02-21T06:15:21;0.30;92.10
42145;DHT22;27813;43.516;11.890;2024-02-21T06:19:25;0.30;92.20
42145;DHT22;27813;43.516;11.890;2024-02-21T06:23:32;0.30;92.40
42145;DHT22;27813;43.516;11.890;2024-02-21T06:27:36;0.40;92.40
42145;DHT22;27813;43.516;11.890;2024-02-21T06:31:41;0.40;92.40
42145;DHT22;27813;43.516;11.890;2024-02-21T06:35:45;0.40;92.60
42145;DHT22;27813;43.516;11.890;2024-02-21T06:39:50;0.50;92.90
42145;DHT22;27813;43.516;11.890;2024-02-21T06:43:55;0.60;92.60
42145;DHT22;27813;43.516;11.890;2024-02-21T06:47:59;0.70;92.70
42145;DHT22;27813;43.516;11.890;2024-02-21T06:52:05;0.80;92.60
42145;DHT22;27813;43.516;11.890;2024-02-21T06:56:10;0.90;92.60
42145;DHT22;27813;43.516;11.890;2024-02-21T07:00:14;0.90;92.50
42145;DHT22;27813;43.516;11.890;2024-02-21T07:04:27;1.00;92.50
42145;DHT22;27813;43.516;11.890;2024-02-21T07:08:33;1.00;92.50
42145;DHT22;27813;43.516;11.890;2024-02-21T07:12:39;1.10;92.60
42145;DHT22;27813;43.516;11.890;2024-02-21T07:16:48;1.30;92.60
42145;DHT22;27813;43.516;11.890;2024-02-21T07:20:52;1.40;92.80
42145;DHT22;27813;43.516;11.890;2024-02-21T07:24:57;1.50;92.90
42145;DHT22;27813;43.516;11.890;2024-02-21T07:29:01;1.80;93.10
42145;DHT22;27813;43.516;11.890;2024-02-21T07:33:08;2.00;93.10
42145;DHT22;27813;43.516;11.890;2024-02-21T07:37:12;2.20;93.10
42145;DHT22;27813;43.516;11.890;2024-02-21T07:41:17;2.40;93.00
42145;DHT22;27813;43.516;11.890;2024-02-21T07:45:24;2.50;93.00
42145;DHT22;27813;43.516;11.890;2024-02-21T07:49:30;2.70;93.00
42145;DHT22;27813;43.516;11.890;2024-02-21T07:53:35;2.90;93.10
42145;DHT22;27813;43.516;11.890;2024-02-21T07:57:39;3.00;93.30
42145;DHT22;27813;43.516;11.890;2024-02-21T08:01:43;3.20;93.30
42145;DHT22;27813;43.516;11.890;2024-02-21T08:05:49;3.40;93.30
42145;DHT22;27813;43.516;11.890;2024-02-21T08:09:55;3.50;93.30
42145;DHT22;27813;43.516;11.890;2024-02-21T08:14:00;3.80;93.30
42145;DHT22;27813;43.516;11.890;2024-02-21T08:18:04;3.90;93.30
42145;DHT22;27813;43.516;11.890;2024-02-21T08:22:10;4.10;93.20
42145;DHT22;27813;43.516;11.890;2024-02-21T08:26:15;4.30;93.20
42145;DHT22;27813;43.516;11.890;2024-02-21T08:30:20;4.50;93.10
42145;DHT22;27813;43.516;11.890;2024-02-21T08:34:25;4.60;93.00
42145;DHT22;27813;43.516;11.890;2024-02-21T08:38:30;4.80;93.00
42145;DHT22;27813;43.516;11.890;2024-02-21T08:42:38;5.00;92.80
42145;DHT22;27813;43.516;11.890;2024-02-21T08:46:43;5.10;92.60
42145;DHT22;27813;43.516;11.890;2024-02-21T08:50:47;5.30;92.80
42145;DHT22;27813;43.516;11.890;2024-02-21T08:54:52;5.50;92.60
42145;DHT22;27813;43.516;11.890;2024-02-21T08:58:58;5.70;92.60
42145;DHT22;27813;43.516;11.890;2024-02-21T09:03:03;5.80;92.50
42145;DHT22;27813;43.516;11.890;2024-02-21T09:07:09;5.90;92.50
42145;DHT22;27813;43.516;11.890;2024-02-21T09:11:14;6.00;92.70
42145;DHT22;27813;43.516;11.890;2024-02-21T09:15:19;6.20;92.50
42145;DHT22;27813;43.516;11.890;2024-02-21T09:19:23;6.40;92.50
42145;DHT22;27813;43.516;11.890;2024-02-21T09:23:32;6.60;92.40
42145;DHT22;27813;43.516;11.890;2024-02-21T09:27:37;6.70;92.30
42145;DHT22;27813;43.516;11.890;2024-02-21T09:31:42;6.90;92.20
42145;DHT22;27813;43.516;11.890;2024-02-21T09:35:46;7.10;92.20
42145;DHT22;27813;43.516;11.890;2024-02-21T09:39:51;7.30;92.00
42145;DHT22;27813;43.516;11.890;2024-02-21T09:43:57;7.50;91.80
42145;DHT22;27813;43.516;11.890;2024-02-21T09:48:08;7.60;91.60
42145;DHT22;27813;43.516;11.890;2024-02-21T09:52:19;7.80;91.40
42145;DHT22;27813;43.516;11.890;2024-02-21T09:56:25;8.00;91.40
42145;DHT22;27813;43.516;11.890;2024-02-21T10:00:29;8.10;91.20
42145;DHT22;27813;43.516;11.890;2024-02-21T10:04:34;8.20;91.10
42145;DHT22;27813;43.516;11.890;2024-02-21T10:08:39;8.40;91.10
42145;DHT22;27813;43.516;11.890;2024-02-21T10:12:52;8.50;90.90
42145;DHT22;27813;43.516;11.890;2024-02-21T10:16:58;8.60;90.70
42145;DHT22;27813;43.516;11.890;2024-02-21T10:21:06;8.70;90.70
42145;DHT22;27813;43.516;11.890;2024-02-21T10:25:14;8.80;90.80
42145;DHT22;27813;43.516;11.890;2024-02-21T10:29:20;8.90;90.90
42145;DHT22;27813;43.516;11.890;2024-02-21T10:33:24;9.00;91.10
42145;DHT22;27813;43.516;11.890;2024-02-21T10:37:32;9.10;91.10
42145;DHT22;27813;43.516;11.890;2024-02-21T10:41:37;9.20;91.00
42145;DHT22;27813;43.516;11.890;2024-02-21T10:45:42;9.30;91.10
42145;DHT22;27813;43.516;11.890;2024-02-21T10:49:48;9.50;90.90
42145;DHT22;27813;43.516;11.890;2024-02-21T10:54:13;9.60;90.80
42145;DHT22;27813;43.516;11.890;2024-02-21T10:58:20;9.70;90.60
42145;DHT22;27813;43.516;11.890;2024-02-21T11:02:34;9.80;90.50
42145;DHT22;27813;43.516;11.890;2024-02-21T11:06:40;9.80;90.50
42145;DHT22;27813;43.516;11.890;2024-02-21T11:10:46;9.80;90.70
42145;DHT22;27813;43.516;11.890;2024-02-21T11:14:52;9.90;90.60
42145;DHT22;27813;43.516;11.890;2024-02-21T11:19:21;10.00;90.50
42145;DHT22;27813;43.516;11.890;2024-02-21T11:23:29;10.10;90.40
42145;DHT22;27813;43.516;11.890;2024-02-21T11:27:33;10.30;90.30
42145;DHT22;27813;43.516;11.890;2024-02-21T11:31:41;10.40;90.20
42145;DHT22;27813;43.516;11.890;2024-02-21T11:35:47;10.50;90.30
42145;DHT22;27813;43.516;11.890;2024-02-21T11:39:51;10.70;90.10
42145;DHT22;27813;43.516;11.890;2024-02-21T11:43:56;10.80;89.90
42145;DHT22;27813;43.516;11.890;2024-02-21T11:48:01;10.90;89.70
42145;DHT22;27813;43.516;11.890;2024-02-21T11:52:08;10.90;89.50
42145;DHT22;27813;43.516;11.890;2024-02-21T11:56:14;11.00;89.40
42145;DHT22;27813;43.516;11.890;2024-02-21T12:00:22;11.10;89.30
42145;DHT22;27813;43.516;11.890;2024-02-21T12:04:30;11.30;89.10
42145;DHT22;27813;43.516;11.890;2024-02-21T12:08:44;11.40;89.00
42145;DHT22;27813;43.516;11.890;2024-02-21T12:12:49;11.50;88.70
42145;DHT22;27813;43.516;11.890;2024-02-21T12:17:05;11.70;88.60
42145;DHT22;27813;43.516;11.890;2024-02-21T12:21:10;11.80;88.50
42145;DHT22;27813;43.516;11.890;2024-02-21T12:25:19;11.90;88.10
42145;DHT22;27813;43.516;11.890;2024-02-21T12:29:25;12.00;87.80
42145;DHT22;27813;43.516;11.890;2024-02-21T12:33:31;12.10;87.80
42145;DHT22;27813;43.516;11.890;2024-02-21T12:37:38;12.20;87.60
42145;DHT22;27813;43.516;11.890;2024-02-21T12:41:47;12.20;87.60
42145;DHT22;27813;43.516;11.890;2024-02-21T12:45:53;12.40;87.60
42145;DHT22;27813;43.516;11.890;2024-02-21T12:49:57;12.40;87.40
42145;DHT22;27813;43.516;11.890;2024-02-21T12:54:03;12.50;87.20
42145;DHT22;27813;43.516;11.890;2024-02-21T12:58:09;12.70;87.00
42145;DHT22;27813;43.516;11.890;2024-02-21T13:02:14;12.90;86.40
42145;DHT22;27813;43.516;11.890;2024-02-21T13:06:20;13.00;86.00
42145;DHT22;27813;43.516;11.890;2024-02-21T13:10:25;13.00;85.60
42145;DHT22;27813;43.516;11.890;2024-02-21T13:14:30;13.10;85.50
42145;DHT22;27813;43.516;11.890;2024-02-21T13:18:39;13.20;85.30
42145;DHT22;27813;43.516;11.890;2024-02-21T13:22:47;13.20;85.30
42145;DHT22;27813;43.516;11.890;2024-02-21T13:26:51;13.10;85.50
42145;DHT22;27813;43.516;11.890;2024-02-21T13:30:55;13.20;85.60
42145;DHT22;27813;43.516;11.890;2024-02-21T13:35:00;13.30;85.60
42145;DHT22;27813;43.516;11.890;2024-02-21T13:39:05;13.30;85.20
42145;DHT22;27813;43.516;11.890;2024-02-21T13:43:12;13.40;84.50
42145;DHT22;27813;43.516;11.890;2024-02-21T13:47:16;13.50;84.10
42145;DHT22;27813;43.516;11.890;2024-02-21T13:51:20;13.50;84.10
42145;DHT22;27813;43.516;11.890;2024-02-21T13:55:25;13.50;83.90
42145;DHT22;27813;43.516;11.890;2024-02-21T13:59:35;13.50;84.00
42145;DHT22;27813;43.516;11.890;2024-02-21T14:03:39;13.60;83.90
42145;DHT22;27813;43.516;11.890;2024-02-21T14:07:46;13.60;83.90
42145;DHT22;27813;43.516;11.890;2024-02-21T14:11:52;13.70;83.70
42145;DHT22;27813;43.516;11.890;2024-02-21T14:15:58;13.70;83.20
42145;DHT22;27813;43.516;11.890;2024-02-21T14:20:03;13.70;83.20
42145;DHT22;27813;43.516;11.890;2024-02-21T14:24:08;13.70;83.20
42145;DHT22;27813;43.516;11.890;2024-02-21T14:28:16;13.70;82.80
42145;DHT22;27813;43.516;11.890;2024-02-21T14:32:24;14.00;82.50
42145;DHT22;27813;43.516;11.890;2024-02-21T14:36:29;14.00;81.80
42145;DHT22;27813;43.516;11.890;2024-02-21T14:40:33;14.00;81.50
42145;DHT22;27813;43.516;11.890;2024-02-21T14:44:39;14.10;81.50
42145;DHT22;27813;43.516;11.890;2024-02-21T14:48:46;14.00;81.60
42145;DHT22;27813;43.516;11.890;2024-02-21T14:52:50;14.00;81.30
42145;DHT22;27813;43.516;11.890;2024-02-21T14:56:54;13.90;81.00
42145;DHT22;27813;43.516;11.890;2024-02-21T15:01:01;13.80;81.30
42145;DHT22;27813;43.516;11.890;2024-02-21T15:05:06;13.80;81.30
42145;DHT22;27813;43.516;11.890;2024-02-21T15:09:13;13.70;81.30
42145;DHT22;27813;43.516;11.890;2024-02-21T15:13:18;13.60;81.20
42145;DHT22;27813;43.516;11.890;2024-02-21T15:17:24;13.50;81.30
42145;DHT22;27813;43.516;11.890;2024-02-21T15:21:31;13.50;81.50
42145;DHT22;27813;43.516;11.890;2024-02-21T15:25:36;13.40;81.30
42145;DHT22;27813;43.516;11.890;2024-02-21T15:29:40;13.30;81.10
42145;DHT22;27813;43.516;11.890;2024-02-21T15:33:46;13.20;80.90
42145;DHT22;27813;43.516;11.890;2024-02-21T15:37:51;13.00;81.10
42145;DHT22;27813;43.516;11.890;2024-02-21T15:41:56;13.00;81.00
42145;DHT22;27813;43.516;11.890;2024-02-21T15:46:04;12.90;81.00
42145;DHT22;27813;43.516;11.890;2024-02-21T15:50:09;12.80;81.10
42145;DHT22;27813;43.516;11.890;2024-02-21T15:54:19;12.70;81.00
42145;DHT22;27813;43.516;11.890;2024-02-21T15:58:29;12.70;80.90
42145;DHT22;27813;43.516;11.890;2024-02-21T16:02:35;12.50;80.90
42145;DHT22;27813;43.516;11.890;2024-02-21T16:06:40;12.30;81.10
42145;DHT22;27813;43.516;11.890;2024-02-21T16:10:44;12.10;81.30
42145;DHT22;27813;43.516;11.890;2024-02-21T16:14:49;12.00;81.30
42145;DHT22;27813;43.516;11.890;2024-02-21T16:18:53;11.80;81.70
42145;DHT22;27813;43.516;11.890;2024-02-21T16:22:58;11.50;81.90
42145;DHT22;27813;43.516;11.890;2024-02-21T16:27:07;11.40;82.00
42145;DHT22;27813;43.516;11.890;2024-02-21T16:31:14;11.20;82.20
42145;DHT22;27813;43.516;11.890;2024-02-21T16:35:19;10.90;82.40
42145;DHT22;27813;43.516;11.890;2024-02-21T16:39:26;10.70;82.60
42145;DHT22;27813;43.516;11.890;2024-02-21T16:43:31;10.50;82.90
42145;DHT22;27813;43.516;11.890;2024-02-21T16:47:38;10.30;83.10
42145;DHT22;27813;43.516;11.890;2024-02-21T16:51:42;10.10;83.20
42145;DHT22;27813;43.516;11.890;2024-02-21T16:55:48;9.90;83.50
42145;DHT22;27813;43.516;11.890;2024-02-21T16:59:53;9.60;83.80
42145;DHT22;27813;43.516;11.890;2024-02-21T17:03:58;9.30;84.20
42145;DHT22;27813;43.516;11.890;2024-02-21T17:08:05;9.00;84.60
42145;DHT22;27813;43.516;11.890;2024-02-21T17:12:13;8.90;84.90
42145;DHT22;27813;43.516;11.890;2024-02-21T17:16:18;8.70;85.20
42145;DHT22;27813;43.516;11.890;2024-02-21T17:20:23;8.60;85.30
42145;DHT22;27813;43.516;11.890;2024-02-21T17:24:27;8.50;85.50
42145;DHT22;27813;43.516;11.890;2024-02-21T17:28:36;8.40;85.70
42145;DHT22;27813;43.516;11.890;2024-02-21T17:32:44;8.40;85.90
42145;DHT22;27813;43.516;11.890;2024-02-21T17:36:49;8.20;85.70
42145;DHT22;27813;43.516;11.890;2024-02-21T17:40:53;8.10;85.70
42145;DHT22;27813;43.516;11.890;2024-02-21T17:44:57;8.00;85.70
42145;DHT22;27813;43.516;11.890;2024-02-21T17:49:02;7.90;85.30
42145;DHT22;27813;43.516;11.890;2024-02-21T17:53:09;7.70;85.40
42145;DHT22;27813;43.516;11.890;2024-02-21T17:57:14;7.50;85.80
42145;DHT22;27813;43.516;11.890;2024-02-21T18:01:19;7.50;85.60
42145;DHT22;27813;43.516;11.890;2024-02-21T18:05:24;7.30;85.80
42145;DHT22;27813;43.516;11.890;2024-02-21T18:09:32;7.10;86.00
42145;DHT22;27813;43.516;11.890;2024-02-21T18:13:38;7.00;86.30
42145;DHT22;27813;43.516;11.890;2024-02-21T18:17:42;6.90;86.10
42145;DHT22;27813;43.516;11.890;2024-02-21T18:21:46;6.80;86.30
42145;DHT22;27813;43.516;11.890;2024-02-21T18:25:51;6.60;86.50
42145;DHT22;27813;43.516;11.890;2024-02-21T18:29:57;6.50;86.60
42145;DHT22;27813;43.516;11.890;2024-02-21T18:34:03;6.40;86.60
42145;DHT22;27813;43.516;11.890;2024-02-21T18:38:08;6.30;86.70
42145;DHT22;27813;43.516;11.890;2024-02-21T18:42:12;6.20;86.80
42145;DHT22;27813;43.516;11.890;2024-02-21T18:46:17;6.10;87.20
42145;DHT22;27813;43.516;11.890;2024-02-21T18:50:21;6.00;87.20
42145;DHT22;27813;43.516;11.890;2024-02-21T18:54:28;6.00;87.20
42145;DHT22;27813;43.516;11.890;2024-02-21T18:58:34;5.90;87.30
42145;DHT22;27813;43.516;11.890;2024-02-21T19:02:38;5.70;87.30
42145;DHT22;27813;43.516;11.890;2024-02-21T19:06:42;5.60;87.60
42145;DHT22;27813;43.516;11.890;2024-02-21T19:10:48;5.50;87.70
42145;DHT22;27813;43.516;11.890;2024-02-21T19:14:56;5.50;87.80
42145;DHT22;27813;43.516;11.890;2024-02-21T19:19:01;5.50;87.50
42145;DHT22;27813;43.516;11.890;2024-02-21T19:23:05;5.40;87.50
42145;DHT22;27813;43.516;11.890;2024-02-21T19:27:11;5.20;87.80
42145;DHT22;27813;43.516;11.890;2024-02-21T19:31:16;5.20;88.00
42145;DHT22;27813;43.516;11.890;2024-02-21T19:35:20;5.20;87.90
42145;DHT22;27813;43.516;11.890;2024-02-21T19:39:25;5.20;87.90
42145;DHT22;27813;43.516;11.890;2024-02-21T19:43:31;5.10;87.90
42145;DHT22;27813;43.516;11.890;2024-02-21T19:47:36;5.00;88.00
42145;DHT22;27813;43.516;11.890;2024-02-21T19:51:43;5.00;88.00
42145;DHT22;27813;43.516;11.890;2024-02-21T19:55:49;4.90;88.30
42145;DHT22;27813;43.516;11.890;2024-02-21T19:59:57;4.90;88.40
42145;DHT22;27813;43.516;11.890;2024-02-21T20:04:14;4.90;88.20
42145;DHT22;27813;43.516;11.890;2024-02-21T20:08:20;4.80;88.30
42145;DHT22;27813;43.516;11.890;2024-02-21T20:12:27;4.80;88.30
42145;DHT22;27813;43.516;11.890;2024-02-21T20:16:32;4.70;88.30
42145;DHT22;27813;43.516;11.890;2024-02-21T20:20:39;4.60;88.30
42145;DHT22;27813;43.516;11.890;2024-02-21T20:24:45;4.40;88.30
42145;DHT22;27813;43.516;11.890;2024-02-21T20:28:49;4.30;88.50
42145;DHT22;27813;43.516;11.890;2024-02-21T20:33:33;4.20;88.90
42145;DHT22;27813;43.516;11.890;2024-02-21T20:37:37;4.10;88.90
42145;DHT22;27813;43.516;11.890;2024-02-21T20:41:42;4.00;88.80
42145;DHT22;27813;43.516;11.890;2024-02-21T20:45:47;3.90;88.80
42145;DHT22;27813;43.516;11.890;2024-02-21T20:49:53;3.90;88.90
42145;DHT22;27813;43.516;11.890;2024-02-21T20:54:01;3.70;89.10
42145;DHT22;27813;43.516;11.890;2024-02-21T20:58:11;3.60;89.10
42145;DHT22;27813;43.516;11.890;2024-02-21T21:02:24;3.50;89.20
42145;DHT22;27813;43.516;11.890;2024-02-21T21:06:31;3.40;89.20
42145;DHT22;27813;43.516;11.890;2024-02-21T21:10:43;3.30;89.30
42145;DHT22;27813;43.516;11.890;2024-02-21T21:15:24;3.30;89.40
42145;DHT22;27813;43.516;11.890;2024-02-21T21:19:34;3.20;89.50
42145;DHT22;27813;43.516;11.890;2024-02-21T21:23:45;3.20;89.70
42145;DHT22;27813;43.516;11.890;2024-02-21T21:27:52;3.20;89.90
42145;DHT22;27813;43.516;11.890;2024-02-21T21:31:59;3.10;89.70
42145;DHT22;27813;43.516;11.890;2024-02-21T21:36:05;3.00;89.80
42145;DHT22;27813;43.516;11.890;2024-02-21T21:40:12;2.90;90.10
42145;DHT22;27813;43.516;11.890;2024-02-21T21:44:19;2.90;90.20
42145;DHT22;27813;43.516;11.890;2024-02-21T21:48:26;3.00;90.30
42145;DHT22;27813;43.516;11.890;2024-02-21T21:52:33;3.00;90.00
42145;DHT22;27813;43.516;11.890;2024-02-21T21:56:38;3.00;89.80
42145;DHT22;27813;43.516;11.890;2024-02-21T22:00:43;2.90;89.70
42145;DHT22;27813;43.516;11.890;2024-02-21T22:04:52;2.80;90.10
42145;DHT22;27813;43.516;11.890;2024-02-21T22:08:58;2.80;90.50
42145;DHT22;27813;43.516;11.890;2024-02-21T22:13:03;2.80;90.30
42145;DHT22;27813;43.516;11.890;2024-02-21T22:17:09;2.80;90.10
42145;DHT22;27813;43.516;11.890;2024-02-21T22:21:17;2.70;90.10
42145;DHT22;27813;43.516;11.890;2024-02-21T22:25:21;2.70;90.00
42145;DHT22;27813;43.516;11.890;2024-02-21T22:29:26;2.50;89.90
42145;DHT22;27813;43.516;11.890;2024-02-21T22:33:35;2.40;90.20
42145;DHT22;27813;43.516;11.890;2024-02-21T22:37:39;2.40;90.20
42145;DHT22;27813;43.516;11.890;2024-02-21T22:41:44;2.40;90.50
42145;DHT22;27813;43.516;11.890;2024-02-21T22:45:48;2.30;90.70
42145;DHT22;27813;43.516;11.890;2024-02-21T22:49:53;2.20;90.70
42145;DHT22;27813;43.516;11.890;2024-02-21T22:53:59;2.20;90.90
42145;DHT22;27813;43.516;11.890;2024-02-21T22:58:03;2.10;90.90
42145;DHT22;27813;43.516;11.890;2024-02-21T23:02:09;2.10;90.90
42145;DHT22;27813;43.516;11.890;2024-02-21T23:06:14;2.10;90.80
42145;DHT22;27813;43.516;11.890;2024-02-21T23:10:25;2.00;90.80
42145;DHT22;27813;43.516;11.890;2024-02-21T23:14:31;2.00;90.70
42145;DHT22;27813;43.516;11.890;2024-02-21T23:18:35;2.00;90.80
42145;DHT22;27813;43.516;11.890;2024-02-21T23:22:42;1.90;91.00
42145;DHT22;27813;43.516;11.890;2024-02-21T23:26:47;1.90;90.90
42145;DHT22;27813;43.516;11.890;2024-02-21T23:30:52;1.90;90.90
42145;DHT22;27813;43.516;11.890;2024-02-21T23:34:59;1.90;90.90
42145;DHT22;27813;43.516;11.890;2024-02-21T23:39:11;1.90;90.90
42145;DHT22;27813;43.516;11.890;2024-02-21T23:43:16;1.80;90.90
42145;DHT22;27813;43.516;11.890;2024-02-21T23:47:21;1.70;90.90
42145;DHT22;27813;43.516;11.890;2024-02-21T23:51:28;1.70;91.00
42145;DHT22;27813;43.516;11.890;2024-02-21T23:55:33;1.70;91.00
42145;DHT22;27813;43.516;11.890;2024-02-21T23:59:38;1.60;91.10
